Time;durP1;ratioP1;P1;durP2;ratioP2;P2;SDS_P1;SDS_P2;PMS_P1;PMS_P2;Temp;Humidity;BMP_temperature;BMP_pressure;BME280_temperature;BME280_humidity;BME280_pressure;Samples;Min_cycle;Max_cycle;Signal;HPM_P1;HPM_P2
2024/01/07 00:00:06;;;;;;;14.30;12.90;;;;;;;5.47;76.80;93427.84;5115241;28;20261;-71
2024/01/07 00:02:33;;;;;;;14.52;13.10;;;;;;;5.47;77.48;93428.63;5097614;28;20203;-71
2024/01/07 00:05:02;;;;;;;13.85;12.55;;;;;;;5.44;77.40;93425.81;5114997;28;20184;-71
2024/01/07 00:07:30;;;;;;;13.80;12.38;;;;;;;5.37;77.42;93418.25;5115491;28;20214;-71
2024/01/07 00:09:57;;;;;;;15.13;13.63;;;;;;;5.38;77.65;93414.41;5114905;28;20680;-72
2024/01/07 00:12:25;;;;;;;15.43;13.80;;;;;;;5.37;77.31;93420.22;5114882;28;20192;-71
2024/01/07 00:14:56;;;;;;;14.63;13.30;;;;;;;5.26;77.11;93403.59;5114142;28;20341;-71
2024/01/07 00:17:23;;;;;;;13.73;12.32;;;;;;;5.27;77.90;93402.47;5114244;28;20246;-71
2024/01/07 00:19:50;;;;;;;14.45;13.15;;;;;;;5.26;78.08;93407.09;5114133;28;20195;-71
2024/01/07 00:22:19;;;;;;;15.35;13.88;;;;;;;5.25;77.86;93400.06;5116406;28;20202;-71
2024/01/07 00:24:48;;;;;;;14.77;13.48;;;;;;;5.22;77.74;93391.78;5117969;28;20231;-71
2024/01/07 00:27:16;;;;;;;14.15;12.77;;;;;;;5.20;77.94;93394.91;5118282;28;20199;-71
2024/01/07 00:29:44;;;;;;;14.20;12.90;;;;;;;5.19;78.42;93395.25;5118403;28;20196;-71
2024/01/07 00:32:15;;;;;;;13.75;12.55;;;;;;;5.21;78.56;93382.81;5117523;28;20265;-71
2024/01/07 00:34:44;;;;;;;13.50;12.20;;;;;;;5.25;79.02;93385.63;5117979;28;20290;-71
2024/01/07 00:37:11;;;;;;;13.35;12.05;;;;;;;5.29;78.82;93370.06;5117593;28;20246;-71
2024/01/07 00:39:42;;;;;;;13.38;12.18;;;;;;;5.28;79.09;93363.03;5118449;28;20272;-71
2024/01/07 00:42:13;;;;;;;13.52;12.23;;;;;;;5.23;78.41;93363.34;5118426;28;20205;-71
2024/01/07 00:44:43;;;;;;;14.10;12.77;;;;;;;5.18;78.35;93348.00;5118078;28;20687;-71
2024/01/07 00:47:13;;;;;;;12.68;11.57;;;;;;;5.20;78.73;93353.91;5118058;28;20207;-71
2024/01/07 00:49:41;;;;;;;13.32;12.02;;;;;;;5.20;78.63;93353.13;5117446;28;20253;-71
2024/01/07 00:52:10;;;;;;;13.02;11.88;;;;;;;5.17;78.47;93343.69;5117734;28;20223;-71
2024/01/07 00:54:38;;;;;;;13.65;12.20;;;;;;;5.13;78.22;93331.09;5118824;28;20204;-72
2024/01/07 00:57:06;;;;;;;12.90;11.70;;;;;;;5.14;78.77;93328.00;5118453;28;20199;-72
2024/01/07 00:59:33;;;;;;;12.88;11.57;;;;;;;5.12;78.71;93327.59;5118129;28;20227;-72
2024/01/07 01:02:00;;;;;;;12.70;11.45;;;;;;;5.10;78.66;93318.94;5116860;28;20623;-72
2024/01/07 01:04:35;;;;;;;12.57;11.48;;;;;;;5.12;78.87;93311.19;5117392;28;20211;-72
2024/01/07 01:07:03;;;;;;;12.40;11.10;;;;;;;5.09;78.75;93320.09;5116949;28;20203;-72
2024/01/07 01:09:32;;;;;;;11.85;10.85;;;;;;;5.04;78.60;93318.44;5116619;28;20199;-72
2024/01/07 01:12:00;;;;;;;12.70;11.40;;;;;;;5.03;78.76;93316.06;5117753;28;20222;-72
2024/01/07 01:14:29;;;;;;;13.00;11.70;;;;;;;5.02;78.58;93314.50;5108502;28;20231;-72
2024/01/07 01:16:56;;;;;;;13.23;11.93;;;;;;;5.00;79.08;93306.66;5099610;28;20626;-72
2024/01/07 01:19:25;;;;;;;13.57;12.43;;;;;;;4.97;79.21;93295.66;5117399;28;20199;-72
2024/01/07 01:21:54;;;;;;;13.38;11.98;;;;;;;4.98;79.01;93289.06;5117835;28;20184;-72
2024/01/07 01:24:21;;;;;;;12.88;11.77;;;;;;;5.01;79.21;93283.66;5117749;28;20290;-72
2024/01/07 01:26:50;;;;;;;12.75;11.65;;;;;;;5.05;79.32;93278.25;5117660;28;20216;-72
2024/01/07 01:29:20;;;;;;;13.10;11.80;;;;;;;5.10;79.76;93269.75;5099394;28;20280;-71
2024/01/07 01:31:47;;;;;;;13.00;11.88;;;;;;;5.13;79.82;93252.63;5100519;28;20232;-71
2024/01/07 01:34:15;;;;;;;12.90;11.63;;;;;;;5.13;79.55;93247.19;5099178;28;20192;-72
2024/01/07 01:36:43;;;;;;;13.35;12.15;;;;;;;5.19;79.92;93239.44;5097730;28;20202;-72
2024/01/07 01:39:12;;;;;;;12.68;11.43;;;;;;;5.20;79.77;93225.44;5100228;28;20212;-72
2024/01/07 01:41:41;;;;;;;13.52;12.25;;;;;;;5.21;79.62;93227.00;5099451;28;20316;-72
2024/01/07 01:44:08;;;;;;;12.57;11.40;;;;;;;5.26;79.77;93231.38;5117350;28;20176;-72
2024/01/07 01:46:36;;;;;;;12.25;11.15;;;;;;;5.22;79.51;93220.38;5117492;28;20219;-72
2024/01/07 01:49:03;;;;;;;13.52;12.18;;;;;;;5.15;79.02;93220.25;5100080;28;20211;-72
2024/01/07 01:51:30;;;;;;;13.35;12.05;;;;;;;5.13;79.16;93214.38;5099501;28;20226;-72
2024/01/07 01:53:58;;;;;;;12.65;11.55;;;;;;;5.13;79.22;93199.94;5116789;28;20241;-72
2024/01/07 01:56:29;;;;;;;12.93;11.77;;;;;;;5.14;79.62;93194.09;5099095;28;20199;-72
2024/01/07 01:58:56;;;;;;;12.43;11.23;;;;;;;5.18;79.60;93178.53;5099317;28;20288;-71
2024/01/07 02:01:24;;;;;;;13.10;11.88;;;;;;;5.21;79.49;93183.28;5099285;28;20192;-71
2024/01/07 02:03:52;;;;;;;13.18;11.98;;;;;;;5.18;79.53;93191.41;5116605;28;20535;-71
2024/01/07 02:06:19;;;;;;;12.88;11.77;;;;;;;5.17;79.60;93187.13;5117105;28;20184;-71
2024/01/07 02:08:46;;;;;;;13.52;12.23;;;;;;;5.18;79.92;93197.66;5099460;28;20249;-72
2024/01/07 02:11:18;;;;;;;13.45;12.15;;;;;;;5.18;80.21;93191.41;5099142;28;20522;-72
2024/01/07 02:13:46;;;;;;;12.50;11.40;;;;;;;5.20;79.98;93197.31;5098612;28;20261;-72
2024/01/07 02:16:14;;;;;;;12.55;11.23;;;;;;;5.15;79.97;93190.19;5116356;28;20192;-72
2024/01/07 02:18:43;;;;;;;12.68;11.38;;;;;;;5.08;79.88;93168.22;5098370;28;20246;-72
2024/01/07 02:21:11;;;;;;;12.50;11.38;;;;;;;5.12;80.12;93174.56;5116611;28;20220;-72
2024/01/07 02:23:38;;;;;;;12.48;11.35;;;;;;;5.13;80.23;93158.94;5116581;28;20257;-72
2024/01/07 02:26:06;;;;;;;12.45;11.32;;;;;;;5.15;80.49;93138.28;5098547;28;20245;-72
2024/01/07 02:28:34;;;;;;;11.45;10.43;;;;;;;5.24;80.89;93119.69;5099373;28;20203;-72
2024/01/07 02:31:01;;;;;;;11.68;10.48;;;;;;;5.40;81.42;93099.59;5098758;28;20192;-72
2024/01/07 02:33:27;;;;;;;11.85;10.75;;;;;;;5.52;81.42;93094.72;5099063;28;20215;-72
2024/01/07 02:35:54;;;;;;;11.43;10.43;;;;;;;5.61;81.59;93105.38;5098545;28;20211;-72
2024/01/07 02:38:21;;;;;;;12.48;11.38;;;;;;;5.62;81.45;93090.56;5098672;28;20195;-72
2024/01/07 02:40:48;;;;;;;11.80;10.60;;;;;;;5.66;81.23;93099.59;5098056;28;20676;-72
2024/01/07 02:43:17;;;;;;;11.93;10.77;;;;;;;5.71;81.28;93096.56;5098054;28;20253;-72
2024/01/07 02:45:44;;;;;;;11.55;10.45;;;;;;;5.78;81.42;93093.13;5098485;28;20200;-72
2024/01/07 02:48:11;;;;;;;11.23;10.23;;;;;;;5.88;81.69;93091.69;5098365;28;20199;-72
2024/01/07 02:50:38;;;;;;;10.93;9.93;;;;;;;5.95;82.03;93089.84;5098777;28;20184;-72
2024/01/07 02:53:05;;;;;;;10.90;9.95;;;;;;;6.01;81.71;93102.06;5098937;28;20200;-72
2024/01/07 02:55:32;;;;;;;11.38;10.20;;;;;;;6.08;81.50;93103.31;5097953;28;20204;-72
2024/01/07 02:57:59;;;;;;;10.38;9.25;;;;;;;6.15;81.60;93100.66;5098793;28;20215;-72
2024/01/07 03:00:27;;;;;;;10.23;9.32;;;;;;;6.18;81.78;93103.44;5097901;28;20272;-72
2024/01/07 03:02:54;;;;;;;10.80;9.75;;;;;;;6.23;81.72;93121.47;5116221;28;20211;-72
2024/01/07 03:05:21;;;;;;;11.75;10.68;;;;;;;6.19;81.25;93135.13;5097572;28;20203;-72
2024/01/07 03:07:48;;;;;;;10.75;9.75;;;;;;;6.17;81.12;93144.84;5097637;28;20595;-72
2024/01/07 03:10:15;;;;;;;10.65;9.68;;;;;;;6.19;81.30;93156.25;5098243;28;20639;-71
2024/01/07 03:12:42;;;;;;;10.70;9.70;;;;;;;6.29;81.48;93149.31;5098474;28;20208;-71
2024/01/07 03:15:09;;;;;;;10.88;9.77;;;;;;;6.38;81.54;93142.38;5129692;27;20238;-71
2024/01/07 03:17:38;;;;;;;10.30;9.25;;;;;;;6.46;81.37;93152.28;5118000;28;20354;-71
2024/01/07 03:20:06;;;;;;;9.98;9.07;;;;;;;6.58;81.62;93155.94;5117869;28;20206;-71
2024/01/07 03:22:32;;;;;;;8.30;7.55;;;;;;;6.67;81.88;93157.19;5118201;28;20195;-71
2024/01/07 03:25:00;;;;;;;9.70;8.35;;;;;;;6.79;81.93;93145.22;5119024;28;20183;-71
2024/01/07 03:27:27;;;;;;;8.25;7.45;;;;;;;6.89;81.90;93160.16;5135967;28;20779;-71
2024/01/07 03:29:54;;;;;;;8.35;7.57;;;;;;;6.96;81.44;93163.75;5136519;28;20510;-71
2024/01/07 03:32:21;;;;;;;7.32;6.68;;;;;;;7.04;81.17;93161.09;5118400;28;20618;-71
2024/01/07 03:34:49;;;;;;;7.32;6.63;;;;;;;7.11;81.24;93158.44;5136111;28;20219;-71
2024/01/07 03:37:17;;;;;;;7.30;6.60;;;;;;;7.10;80.26;93146.69;5118876;28;20644;-71
2024/01/07 03:39:44;;;;;;;5.10;4.60;;;;;;;7.16;80.83;93142.44;5118884;28;20267;-72
2024/01/07 03:42:11;;;;;;;5.13;4.40;;;;;;;7.26;80.92;93151.13;5118266;28;20199;-72
2024/01/07 03:44:39;;;;;;;3.78;3.35;;;;;;;7.34;81.07;93141.81;5135734;28;20563;-72
2024/01/07 03:47:06;;;;;;;4.72;3.58;;;;;;;7.38;81.19;93143.41;5136523;28;20187;-72
2024/01/07 03:49:33;;;;;;;4.35;3.45;;;;;;;7.40;81.10;93134.78;5135732;28;20254;-72
2024/01/07 03:52:01;;;;;;;3.10;2.80;;;;;;;7.41;81.72;93115.22;5135693;28;20240;-72
2024/01/07 03:54:28;;;;;;;3.88;3.20;;;;;;;7.42;82.08;93113.25;5136006;28;20191;-72
2024/01/07 03:56:55;;;;;;;3.35;3.05;;;;;;;7.40;82.56;93108.13;5118704;27;20187;-71
2024/01/07 03:59:24;;;;;;;2.92;2.72;;;;;;;7.37;82.89;93108.94;5139914;27;20214;-71
2024/01/07 04:01:51;;;;;;;3.20;2.50;;;;;;;7.34;82.95;93112.41;5139545;27;20190;-71
2024/01/07 04:04:18;;;;;;;3.15;2.83;;;;;;;7.33;83.02;93107.31;5121747;27;20203;-72
2024/01/07 04:06:45;;;;;;;2.50;2.30;;;;;;;7.36;82.73;93101.84;5121864;27;20195;-72
2024/01/07 04:09:14;;;;;;;2.50;2.40;;;;;;;7.37;82.61;93100.69;5121605;27;20315;-72
2024/01/07 04:11:41;;;;;;;2.30;2.10;;;;;;;7.42;82.66;93097.59;5139509;27;20244;-72
2024/01/07 04:14:09;;;;;;;1.77;1.67;;;;;;;7.46;82.16;93101.13;5114650;28;20227;-72
2024/01/07 04:16:36;;;;;;;1.98;1.77;;;;;;;7.50;81.89;93092.94;5118780;28;20264;-72
2024/01/07 04:19:03;;;;;;;2.22;2.13;;;;;;;7.57;81.58;93073.00;5118350;28;20272;-72
2024/01/07 04:21:30;;;;;;;1.98;1.88;;;;;;;7.63;81.69;93063.25;5117780;28;20192;-72
2024/01/07 04:23:57;;;;;;;1.80;1.70;;;;;;;7.67;81.70;93059.34;5117975;28;20195;-72
2024/01/07 04:26:25;;;;;;;1.90;1.80;;;;;;;7.70;81.75;93066.03;5117986;28;20223;-72
2024/01/07 04:28:52;;;;;;;1.70;1.60;;;;;;;7.71;82.39;93059.38;5118825;28;20204;-72
2024/01/07 04:31:19;;;;;;;1.90;1.80;;;;;;;7.63;83.13;93068.75;5100977;28;20206;-72
2024/01/07 04:33:47;;;;;;;3.22;2.92;;;;;;;7.54;83.36;93069.06;5117888;28;20253;-72
2024/01/07 04:36:14;;;;;;;2.30;2.10;;;;;;;7.51;83.77;93058.84;5118052;28;20208;-72
2024/01/07 04:38:41;;;;;;;2.42;2.22;;;;;;;7.54;84.22;93065.53;5117789;28;20196;-72
2024/01/07 04:41:08;;;;;;;2.47;2.25;;;;;;;7.58;84.20;93060.84;5118218;28;20200;-72
2024/01/07 04:43:36;;;;;;;2.30;2.20;;;;;;;7.60;84.38;93073.03;5117445;28;20203;-72
2024/01/07 04:46:04;;;;;;;3.47;3.17;;;;;;;7.64;84.01;93067.56;5117972;28;20207;-72
2024/01/07 04:48:31;;;;;;;3.08;2.88;;;;;;;7.67;83.44;93059.34;5118315;28;20200;-72
2024/01/07 04:50:58;;;;;;;2.85;2.65;;;;;;;7.66;83.82;93059.72;5117767;28;20191;-72
2024/01/07 04:53:25;;;;;;;3.13;2.80;;;;;;;7.62;83.61;93056.94;5118383;28;20218;-72
2024/01/07 04:55:52;;;;;;;2.78;2.50;;;;;;;7.61;83.69;93063.63;5118082;28;20219;-73
2024/01/07 04:58:19;;;;;;;3.10;2.90;;;;;;;7.58;83.85;93071.81;5118205;28;20265;-73
2024/01/07 05:00:47;;;;;;;3.20;3.00;;;;;;;7.52;84.08;93073.38;5117509;28;20273;-73
2024/01/07 05:03:14;;;;;;;3.38;3.08;;;;;;;7.52;84.28;93082.38;5117727;28;20214;-72
2024/01/07 05:05:41;;;;;;;3.88;3.58;;;;;;;7.52;84.67;93076.91;5117698;28;20214;-71
2024/01/07 05:08:08;;;;;;;12.95;11.85;;;;;;;7.56;84.59;93079.66;5117672;28;20180;-72
2024/01/07 05:10:35;;;;;;;14.07;13.07;;;;;;;7.57;84.79;93073.00;5117245;28;20203;-71
2024/01/07 05:13:05;;;;;;;14.68;13.48;;;;;;;7.55;84.75;93061.59;5117091;28;20253;-71
2024/01/07 05:15:32;;;;;;;10.07;9.27;;;;;;;7.54;84.80;93057.31;5099020;28;20235;-72
2024/01/07 05:18:01;;;;;;;6.53;5.93;;;;;;;7.51;84.48;93066.28;5099647;28;20614;-72
2024/01/07 05:20:28;;;;;;;4.38;4.07;;;;;;;7.47;84.25;93058.03;5100281;28;20204;-71
2024/01/07 05:22:56;;;;;;;4.85;4.20;;;;;;;7.43;84.39;93062.72;5100120;28;20200;-70
2024/01/07 05:25:23;;;;;;;4.47;4.07;;;;;;;7.39;84.18;93059.16;5100614;28;20230;-70
2024/01/07 05:27:50;;;;;;;4.88;4.35;;;;;;;7.38;84.36;93063.09;5099445;28;20249;-70
2024/01/07 05:30:17;;;;;;;5.50;5.00;;;;;;;7.34;84.19;93048.56;5082871;28;20253;-70
2024/01/07 05:32:43;;;;;;;5.50;4.75;;;;;;;7.32;84.16;93054.41;5117197;28;20219;-70
2024/01/07 05:35:12;;;;;;;6.18;5.28;;;;;;;7.29;83.79;93055.16;5118013;28;20188;-70
2024/01/07 05:37:39;;;;;;;5.78;5.10;;;;;;;7.27;83.94;93057.53;5117556;28;20192;-70
2024/01/07 05:40:07;;;;;;;6.10;5.45;;;;;;;7.23;83.85;93053.97;5099669;28;20568;-70
2024/01/07 05:42:34;;;;;;;8.75;6.30;;;;;;;7.20;83.68;93046.50;5099107;28;20196;-70
2024/01/07 05:45:02;;;;;;;8.48;6.10;;;;;;;7.15;83.70;93044.91;5099126;28;20611;-70
2024/01/07 05:47:29;;;;;;;8.52;6.47;;;;;;;7.10;83.91;93048.00;5099275;28;20207;-71
2024/01/07 05:49:56;;;;;;;8.73;6.35;;;;;;;7.08;83.94;93041.28;5099797;28;20192;-71
2024/01/07 05:52:25;;;;;;;6.88;5.93;;;;;;;7.07;83.78;93034.25;5100098;28;20183;-71
2024/01/07 05:54:52;;;;;;;6.40;5.80;;;;;;;7.07;84.17;93032.28;5099473;28;20188;-71
2024/01/07 05:57:19;;;;;;;6.20;5.55;;;;;;;7.06;83.95;93029.94;5099280;28;20207;-71
2024/01/07 05:59:46;;;;;;;5.53;5.03;;;;;;;7.04;83.81;93040.50;5098748;28;20716;-71
2024/01/07 06:02:16;;;;;;;5.95;5.32;;;;;;;7.06;83.87;93052.66;5099432;28;20245;-71
2024/01/07 06:04:43;;;;;;;7.95;7.13;;;;;;;7.05;83.76;93045.59;5099274;28;20227;-70
2024/01/07 06:07:10;;;;;;;9.40;8.50;;;;;;;7.04;83.93;93041.28;5099535;28;20207;-71
2024/01/07 06:09:42;;;;;;;8.75;7.95;;;;;;;7.02;84.56;93040.09;5099205;28;20612;-71
2024/01/07 06:12:09;;;;;;;10.52;8.70;;;;;;;6.98;84.71;93040.06;5116712;28;20188;-71
2024/01/07 06:14:36;;;;;;;9.15;8.30;;;;;;;6.98;84.89;93045.56;5098537;28;20243;-71
2024/01/07 06:17:03;;;;;;;8.25;7.50;;;;;;;7.00;85.36;93033.03;5098999;28;20207;-71
2024/01/07 06:19:31;;;;;;;8.13;7.38;;;;;;;6.99;85.42;93042.41;5097698;28;20196;-71
2024/01/07 06:21:58;;;;;;;8.57;7.78;;;;;;;6.99;85.53;93045.16;5098505;28;20188;-71
2024/01/07 06:24:25;;;;;;;8.25;7.55;;;;;;;7.02;85.67;93042.84;5098312;28;20200;-71
2024/01/07 06:26:53;;;;;;;7.82;7.03;;;;;;;7.01;85.57;93058.50;5116744;28;20254;-71
2024/01/07 06:29:20;;;;;;;7.75;6.93;;;;;;;7.03;85.98;93058.09;5098564;28;20191;-71
2024/01/07 06:31:48;;;;;;;7.45;6.75;;;;;;;7.06;86.02;93058.13;5116107;28;20701;-71
2024/01/07 06:34:15;;;;;;;7.28;6.65;;;;;;;7.07;85.90;93073.41;5098675;28;20249;-70
2024/01/07 06:36:42;;;;;;;8.07;7.18;;;;;;;7.06;85.94;93068.31;5098423;28;20206;-70
2024/01/07 06:39:09;;;;;;;7.38;6.68;;;;;;;7.09;86.29;93076.56;5098730;28;20203;-70
2024/01/07 06:41:36;;;;;;;6.75;6.15;;;;;;;7.12;86.14;93075.03;5098397;28;20215;-70
2024/01/07 06:44:05;;;;;;;8.18;7.40;;;;;;;7.13;86.13;93073.88;5098610;28;20199;-70
2024/01/07 06:46:34;;;;;;;7.65;6.95;;;;;;;7.15;86.07;93079.75;5098021;28;20700;-71
2024/01/07 06:49:01;;;;;;;7.28;6.68;;;;;;;7.15;86.41;93077.00;5098719;28;20188;-70
2024/01/07 06:51:28;;;;;;;7.78;7.00;;;;;;;7.16;86.34;93070.38;5098111;28;20203;-71
2024/01/07 06:53:55;;;;;;;7.10;6.50;;;;;;;7.16;86.44;93078.59;5098691;28;20273;-70
2024/01/07 06:56:22;;;;;;;8.32;7.63;;;;;;;7.19;86.22;93064.13;5097828;28;20204;-70
2024/01/07 06:58:50;;;;;;;8.32;7.53;;;;;;;7.22;86.42;93068.81;5097818;28;20264;-70
2024/01/07 07:01:21;;;;;;;7.78;7.07;;;;;;;7.23;86.09;93078.66;5098462;28;20215;-70
2024/01/07 07:03:48;;;;;;;7.38;6.78;;;;;;;7.25;85.84;93068.06;5115576;28;20187;-70
2024/01/07 07:06:16;;;;;;;7.20;6.60;;;;;;;7.24;85.87;93086.47;5116276;28;20273;-71
2024/01/07 07:08:43;;;;;;;7.00;6.35;;;;;;;7.27;85.79;93076.72;5097705;28;20289;-71
2024/01/07 07:11:10;;;;;;;7.57;6.97;;;;;;;7.30;85.68;93080.63;5098584;28;20203;-71
2024/01/07 07:13:38;;;;;;;7.25;6.55;;;;;;;7.31;85.57;93079.50;5095909;28;20315;-71
2024/01/07 07:16:06;;;;;;;7.60;7.00;;;;;;;7.32;85.54;93087.31;5115510;28;20188;-71
2024/01/07 07:18:34;;;;;;;7.53;6.82;;;;;;;7.33;85.73;93082.63;5097928;28;20203;-71
2024/01/07 07:21:01;;;;;;;7.50;6.80;;;;;;;7.33;85.50;93075.16;5115443;28;20260;-71
2024/01/07 07:23:28;;;;;;;7.65;6.90;;;;;;;7.37;85.22;93065.03;5098177;28;20188;-71
2024/01/07 07:25:56;;;;;;;8.18;7.15;;;;;;;7.41;85.48;93065.06;5097806;28;20192;-71
2024/01/07 07:28:23;;;;;;;7.65;6.97;;;;;;;7.41;85.65;93073.31;5098592;28;20204;-71
2024/01/07 07:30:50;;;;;;;7.97;7.25;;;;;;;7.40;85.58;93064.25;5099582;28;20200;-71
2024/01/07 07:33:17;;;;;;;8.02;7.32;;;;;;;7.43;85.37;93087.41;5102789;28;20195;-71
2024/01/07 07:35:46;;;;;;;8.32;7.63;;;;;;;7.46;85.66;93079.19;5102162;28;20200;-71
2024/01/07 07:38:14;;;;;;;7.55;6.97;;;;;;;7.51;85.30;93097.25;5102327;28;20260;-71
2024/01/07 07:40:41;;;;;;;8.10;7.50;;;;;;;7.56;85.25;93071.44;5119377;28;20211;-71
2024/01/07 07:43:09;;;;;;;8.27;7.53;;;;;;;7.59;85.08;93063.22;5119373;28;20179;-71
2024/01/07 07:45:36;;;;;;;8.40;7.63;;;;;;;7.63;84.95;93068.75;5101750;28;20630;-71
2024/01/07 07:48:03;;;;;;;8.48;7.65;;;;;;;7.65;84.68;93072.66;5101366;28;20192;-70
2024/01/07 07:50:30;;;;;;;8.68;7.85;;;;;;;7.67;84.52;93061.31;5101583;28;20199;-71
2024/01/07 07:52:59;;;;;;;8.30;7.53;;;;;;;7.69;84.66;93067.19;5101831;28;20212;-71
2024/01/07 07:55:27;;;;;;;8.90;8.00;;;;;;;7.71;85.10;93070.34;5101794;28;20290;-71
2024/01/07 07:57:54;;;;;;;8.90;8.07;;;;;;;7.76;85.19;93064.47;5119344;28;20196;-71
2024/01/07 08:00:21;;;;;;;8.20;7.50;;;;;;;7.78;84.93;93053.91;5101311;28;20670;-71
2024/01/07 08:02:48;;;;;;;7.53;6.82;;;;;;;7.83;85.15;93055.50;5101695;28;20203;-71
2024/01/07 08:05:16;;;;;;;9.35;8.60;;;;;;;7.86;84.63;93058.28;5102114;28;20192;-71
2024/01/07 08:07:43;;;;;;;17.70;16.00;;;;;;;7.86;84.50;93069.25;5100962;28;20206;-71
2024/01/07 08:10:11;;;;;;;17.10;15.55;;;;;;;7.87;83.75;93064.53;5101267;28;20191;-68
2024/01/07 08:12:39;;;;;;;16.15;14.73;;;;;;;7.88;83.90;93077.91;5119186;28;20180;-68
2024/01/07 08:15:07;;;;;;;17.80;15.98;;;;;;;7.89;83.89;93071.22;5097192;28;20225;-68
2024/01/07 08:17:34;;;;;;;14.00;12.80;;;;;;;7.95;83.45;93069.69;5100806;28;20689;-68
2024/01/07 08:20:01;;;;;;;12.32;11.23;;;;;;;7.99;83.56;93069.72;5118572;28;20713;-67
2024/01/07 08:22:29;;;;;;;10.05;9.13;;;;;;;8.05;83.47;93065.41;5119445;28;20188;-68
2024/01/07 08:24:56;;;;;;;9.00;8.20;;;;;;;8.09;83.31;93068.19;5118603;28;20192;-69
2024/01/07 08:27:24;;;;;;;9.80;8.80;;;;;;;8.11;83.33;93060.34;5100553;28;20183;-67
2024/01/07 08:29:51;;;;;;;9.23;8.30;;;;;;;8.15;83.43;93050.94;5100568;28;20239;-69
2024/01/07 08:32:19;;;;;;;8.15;7.43;;;;;;;8.17;83.68;93043.13;5100845;28;20619;-67
2024/01/07 08:34:46;;;;;;;8.15;7.47;;;;;;;8.20;83.05;93055.28;5100506;28;20607;-69
2024/01/07 08:37:13;;;;;;;8.40;7.63;;;;;;;8.21;82.68;93059.63;5119211;28;20219;-69
2024/01/07 08:39:40;;;;;;;8.55;7.75;;;;;;;8.24;82.63;93066.28;5101030;28;20199;-71
2024/01/07 08:42:07;;;;;;;9.73;8.75;;;;;;;8.29;82.47;93063.16;5100552;28;20219;-72
2024/01/07 08:44:36;;;;;;;8.30;7.60;;;;;;;8.33;82.61;93061.22;5101069;28;20248;-72
2024/01/07 08:47:03;;;;;;;8.38;7.68;;;;;;;8.36;82.18;93068.69;5118215;28;20630;-72
2024/01/07 08:49:30;;;;;;;8.82;8.05;;;;;;;8.39;82.13;93063.25;5100510;28;20195;-72
2024/01/07 08:51:57;;;;;;;7.50;6.90;;;;;;;8.43;82.01;93049.50;5100124;28;20598;-71
2024/01/07 08:54:25;;;;;;;7.32;6.65;;;;;;;8.45;81.93;93030.66;5100792;28;20592;-71
2024/01/07 08:56:52;;;;;;;7.55;6.95;;;;;;;8.50;82.00;93052.28;5100211;28;20231;-71
2024/01/07 08:59:19;;;;;;;8.40;7.70;;;;;;;8.55;81.90;93042.88;5100762;28;20207;-71
2024/01/07 09:01:47;;;;;;;8.05;7.35;;;;;;;8.62;82.00;93049.16;5100347;28;20215;-72
2024/01/07 09:04:16;;;;;;;8.70;7.80;;;;;;;8.76;82.23;93039.38;5100223;28;20586;-71
2024/01/07 09:06:43;;;;;;;8.60;7.80;;;;;;;8.88;81.73;93042.53;5100443;28;20200;-71
2024/01/07 09:09:10;;;;;;;8.88;8.18;;;;;;;8.98;81.43;93040.97;5100435;28;20264;-71
2024/01/07 09:11:37;;;;;;;8.57;7.80;;;;;;;9.06;81.30;93050.78;5100187;28;20294;-71
2024/01/07 09:14:05;;;;;;;8.40;7.70;;;;;;;9.12;80.57;93057.47;5104435;27;20287;-71
2024/01/07 09:16:32;;;;;;;8.95;8.25;;;;;;;9.25;80.14;93060.59;5120302;27;20191;-71
2024/01/07 09:19:00;;;;;;;8.02;7.32;;;;;;;9.48;79.63;93049.22;5120414;27;20191;-71
2024/01/07 09:21:27;;;;;;;7.70;6.85;;;;;;;9.60;78.09;93056.28;5120895;27;20232;-71
2024/01/07 09:23:54;;;;;;;7.43;6.65;;;;;;;9.86;78.47;93057.78;5120943;27;20198;-72
2024/01/07 09:26:21;;;;;;;7.68;6.97;;;;;;;10.25;78.42;93054.13;5120890;27;20195;-71
2024/01/07 09:28:48;;;;;;;7.10;6.45;;;;;;;10.58;77.74;93048.09;5119990;27;20272;-71
2024/01/07 09:31:15;;;;;;;6.55;5.95;;;;;;;10.74;74.66;93041.31;5119895;27;20580;-71
2024/01/07 09:33:42;;;;;;;6.95;6.28;;;;;;;10.85;73.22;93047.53;5120205;27;20203;-71
2024/01/07 09:36:11;;;;;;;6.70;6.10;;;;;;;11.07;73.95;93043.47;5120095;27;20248;-71
2024/01/07 09:38:38;;;;;;;7.65;6.95;;;;;;;11.27;72.95;93049.22;5120782;27;20290;-72
2024/01/07 09:41:06;;;;;;;6.82;5.80;;;;;;;11.53;72.65;93034.03;5119567;27;20215;-72
2024/01/07 09:43:33;;;;;;;7.07;6.38;;;;;;;11.84;71.69;93036.94;5120103;27;20195;-72
2024/01/07 09:46:01;;;;;;;7.07;6.47;;;;;;;12.08;70.05;93043.38;5120416;27;20559;-72
2024/01/07 09:48:28;;;;;;;12.18;6.53;;;;;;;12.19;69.82;93041.25;5119955;27;20195;-72
2024/01/07 09:50:54;;;;;;;5.97;5.35;;;;;;;12.27;70.35;93044.72;5119677;27;20199;-72
2024/01/07 09:53:27;;;;;;;6.70;6.15;;;;;;;12.21;69.35;93035.34;5120479;27;20195;-71
2024/01/07 09:56:13;;;;;;;6.72;6.03;;;;;;;12.11;69.65;93048.06;5119384;27;20255;-72
2024/01/07 09:58:42;;;;;;;5.97;5.38;;;;;;;12.09;68.67;93030.34;5119480;27;20618;-72
2024/01/07 10:01:09;;;;;;;6.45;5.85;;;;;;;12.11;69.57;93039.78;5119398;27;20211;-72
2024/01/07 10:03:37;;;;;;;7.38;6.05;;;;;;;12.04;67.50;93035.13;5119827;27;20246;-72
2024/01/07 10:06:05;;;;;;;5.95;4.88;;;;;;;11.92;66.46;93023.81;5119990;27;20222;-72
2024/01/07 10:08:33;;;;;;;1.50;1.40;;;;;;;11.86;62.72;93026.25;5120195;27;20198;-72
2024/01/07 10:11:02;;;;;;;2.05;1.50;;;;;;;11.64;62.14;93016.56;5118835;27;20206;-72
2024/01/07 10:13:29;;;;;;;2.90;1.70;;;;;;;11.54;62.74;93018.22;5119494;27;20523;-72
2024/01/07 10:15:56;;;;;;;2.95;1.60;;;;;;;11.51;62.40;93019.03;5119256;27;20216;-72
2024/01/07 10:18:23;;;;;;;2.42;1.60;;;;;;;11.44;62.04;93006.13;5119217;27;20199;-72
2024/01/07 10:20:50;;;;;;;3.63;1.50;;;;;;;11.43;63.04;92989.94;5118850;27;20198;-72
2024/01/07 10:23:20;;;;;;;2.03;1.40;;;;;;;11.51;62.04;92991.44;5119760;27;20190;-72
2024/01/07 10:25:48;;;;;;;2.15;1.70;;;;;;;11.53;62.23;93006.41;5119857;27;20567;-72
2024/01/07 10:28:15;;;;;;;3.03;1.67;;;;;;;11.42;61.38;92986.41;5119569;27;20232;-72
2024/01/07 10:30:42;;;;;;;3.72;1.60;;;;;;;11.28;62.16;92994.81;5119582;27;20206;-72
2024/01/07 10:33:10;;;;;;;2.13;1.60;;;;;;;11.05;61.62;92985.16;5119572;27;20211;-72
2024/01/07 10:35:39;;;;;;;3.40;1.52;;;;;;;10.96;62.09;92995.06;5119133;27;20303;-72
2024/01/07 10:38:06;;;;;;;3.53;1.30;;;;;;;10.89;61.79;92995.13;5118685;27;20187;-72
2024/01/07 10:40:34;;;;;;;2.30;1.40;;;;;;;10.81;61.68;92991.63;5119691;27;20195;-72
2024/01/07 10:43:03;;;;;;;2.45;1.58;;;;;;;10.78;61.81;92975.88;5118536;27;20215;-71
2024/01/07 10:45:31;;;;;;;3.80;1.65;;;;;;;10.81;62.52;92977.84;5118915;27;20687;-71
2024/01/07 10:48:02;;;;;;;3.08;2.15;;;;;;;10.81;61.75;92989.66;5118572;27;20214;-71
2024/01/07 10:50:29;;;;;;;4.20;2.60;;;;;;;10.70;61.79;92977.13;5119242;27;20194;-72
2024/01/07 10:52:59;;;;;;;4.45;2.70;;;;;;;10.66;62.01;92976.38;5119006;27;20252;-72
2024/01/07 10:55:29;;;;;;;1.70;1.60;;;;;;;10.58;61.95;92975.66;5118592;27;20244;-72
2024/01/07 10:57:57;;;;;;;2.97;1.95;;;;;;;10.51;61.99;92981.19;5118589;27;20683;-72
2024/01/07 11:00:25;;;;;;;3.65;1.80;;;;;;;10.55;65.56;92973.69;5118158;27;20255;-70
2024/01/07 11:02:58;;;;;;;2.63;1.60;;;;;;;10.70;62.49;92964.13;5118802;27;20219;-70
2024/01/07 11:05:31;;;;;;;4.53;2.40;;;;;;;10.79;62.40;92970.00;5118099;28;20198;-72
2024/01/07 11:08:04;;;;;;;4.63;2.40;;;;;;;10.88;62.55;92966.75;5119029;28;20199;-72
2024/01/07 11:10:38;;;;;;;4.10;1.70;;;;;;;10.93;62.38;92971.06;5118592;27;20207;-72
2024/01/07 11:13:05;;;;;;;3.05;2.13;;;;;;;10.96;62.99;92973.78;5118480;28;20234;-72
2024/01/07 11:15:57;;;;;;;3.78;2.00;;;;;;;11.00;62.13;92957.22;5097268;28;20231;-72
2024/01/07 11:18:29;;;;;;;3.83;1.80;;;;;;;11.01;62.60;92972.59;5079487;28;20298;-72
2024/01/07 11:20:59;;;;;;;5.78;1.88;;;;;;;10.99;62.18;92967.47;5098710;28;20188;-72
2024/01/07 11:23:32;;;;;;;3.30;2.38;;;;;;;10.98;62.07;92974.16;5097996;28;20206;-72
2024/01/07 11:26:00;;;;;;;6.10;5.50;;;;;;;10.90;65.38;92980.94;5098119;28;20211;-72
2024/01/07 11:28:50;;;;;;;6.63;6.03;;;;;;;10.88;66.26;92977.00;5098146;28;20207;-72
2024/01/07 11:31:20;;;;;;;5.97;5.38;;;;;;;10.89;67.03;92970.31;5097860;28;20195;-72
2024/01/07 11:33:49;;;;;;;7.22;6.57;;;;;;;10.89;67.28;92981.31;5098011;28;20257;-72
2024/01/07 11:36:16;;;;;;;8.10;7.40;;;;;;;10.87;67.69;92981.75;5097436;28;20184;-72